Time;durP1;ratioP1;P1;durP2;ratioP2;P2;SDS_P1;SDS_P2;PMS_P1;PMS_P2;Temp;Humidity;BMP_temperature;BMP_pressure;BME280_temperature;BME280_humidity;BME280_pressure;Samples;Min_cycle;Max_cycle;Signal;HPM_P1;HPM_P2
2022/05/10 00:00:07;;;;;;;9.57;7.90;;;13.00;33.60;;;;;;5055145;28;20420;-70
2022/05/10 00:02:34;;;;;;;10.20;9.20;;;12.80;34.40;;;;;;5055213;28;20516;-70
2022/05/10 00:04:59;;;;;;;9.97;8.90;;;12.80;35.10;;;;;;5055661;28;20441;-71
2022/05/10 00:07:27;;;;;;;9.77;8.60;;;12.60;36.00;;;;;;5056410;28;20427;-70
2022/05/10 00:09:53;;;;;;;11.53;9.47;;;12.70;35.90;;;;;;5056861;28;20254;-71
2022/05/10 00:12:21;;;;;;;10.17;9.07;;;12.70;35.90;;;;;;5056073;28;20456;-70
2022/05/10 00:14:49;;;;;;;9.50;8.60;;;12.70;35.20;;;;;;5058123;28;20201;-70
2022/05/10 00:17:40;;;;;;;9.77;8.37;;;12.60;35.30;;;;;;5056366;28;20479;-70
2022/05/10 00:20:09;;;;;;;10.30;9.07;;;12.60;35.20;;;;;;5054600;28;20957;-70
2022/05/10 00:22:35;;;;;;;8.07;7.33;;;12.60;35.50;;;;;;5054186;28;20945;-71
2022/05/10 00:25:01;;;;;;;9.83;8.67;;;12.60;35.50;;;;;;5055030;28;20442;-70
2022/05/10 00:27:27;;;;;;;12.83;8.37;;;12.70;34.40;;;;;;5055174;28;20167;-70
2022/05/10 00:29:55;;;;;;;9.37;8.40;;;12.70;34.30;;;;;;5056337;28;20415;-71
2022/05/10 00:32:26;;;;;;;11.00;8.40;;;12.70;34.20;;;;;;5055818;28;20194;-70
2022/05/10 00:34:57;;;;;;;9.40;8.40;;;12.60;34.30;;;;;;5055027;28;20544;-70
2022/05/10 00:37:23;;;;;;;8.23;7.43;;;12.60;34.00;;;;;;5037743;28;20422;-70
2022/05/10 00:39:49;;;;;;;8.93;8.13;;;12.50;34.20;;;;;;5055492;28;20410;-69
2022/05/10 00:42:34;;;;;;;9.50;8.60;;;12.40;34.40;;;;;;5054377;28;20439;-70
2022/05/10 00:45:08;;;;;;;14.43;10.93;;;12.40;35.10;;;;;;5055088;28;20448;-70
2022/05/10 00:47:43;;;;;;;10.93;9.97;;;12.40;35.90;;;;;;5053486;28;20941;-70
2022/05/10 00:50:17;;;;;;;10.10;9.20;;;12.40;35.70;;;;;;5054397;28;20467;-70
2022/05/10 00:52:46;;;;;;;11.73;8.77;;;12.50;35.40;;;;;;5052277;28;20427;-70
2022/05/10 00:55:19;;;;;;;9.93;8.87;;;12.50;35.10;;;;;;5053686;28;20417;-71
2022/05/10 00:57:51;;;;;;;9.50;8.50;;;12.50;35.00;;;;;;5053220;28;20428;-70
2022/05/10 01:00:26;;;;;;;10.20;7.97;;;12.50;35.10;;;;;;5052371;28;20423;-70
2022/05/10 01:03:11;;;;;;;8.97;8.07;;;12.50;34.90;;;;;;5052501;28;20423;-70
2022/05/10 01:06:03;;;;;;;11.37;9.97;;;12.40;35.00;;;;;;5054678;28;20793;-69
2022/05/10 01:08:54;;;;;;;11.53;9.53;;;12.30;35.50;;;;;;5053853;28;20904;-70
2022/05/10 01:11:25;;;;;;;10.97;9.47;;;12.30;35.90;;;;;;5053696;28;20443;-69
2022/05/10 01:13:55;;;;;;;10.70;9.60;;;12.40;36.30;;;;;;5053120;28;20471;-69
2022/05/10 01:16:23;;;;;;;10.37;9.37;;;12.30;35.80;;;;;;5055158;28;20413;-69
2022/05/10 01:18:51;;;;;;;9.97;9.07;;;12.30;36.00;;;;;;5052236;28;20906;-71
2022/05/10 01:21:44;;;;;;;9.57;8.67;;;12.20;36.40;;;;;;5052889;28;20483;-70
2022/05/10 01:24:28;;;;;;;10.20;8.43;;;12.10;36.20;;;;;;5054157;28;20420;-70
2022/05/10 01:27:12;;;;;;;9.70;8.17;;;12.10;36.60;;;;;;5053299;28;20462;-69
2022/05/10 01:29:52;;;;;;;10.90;9.30;;;12.20;36.50;;;;;;5054591;28;20475;-69
2022/05/10 01:35:16;;;;;;;9.20;8.03;;;12.20;36.60;;;;;;5054902;28;20466;-71
2022/05/10 01:37:47;;;;;;;10.73;8.90;;;12.20;35.80;;;;;;5053285;28;20412;-70
2022/05/10 01:40:36;;;;;;;9.27;8.23;;;12.10;36.20;;;;;;5051896;28;20422;-70
2022/05/10 01:43:25;;;;;;;15.40;9.63;;;12.00;36.30;;;;;;5051903;28;20423;-70
2022/05/10 01:45:56;;;;;;;7.83;7.20;;;11.70;38.50;;;;;;5051788;28;20964;-70
2022/05/10 01:48:22;;;;;;;9.77;8.33;;;11.60;39.20;;;;;;5053265;28;20447;-70
2022/05/10 01:51:02;;;;;;;9.67;8.67;;;11.60;38.80;;;;;;5055033;28;20691;-70
2022/05/10 01:53:34;;;;;;;9.77;8.03;;;11.60;39.00;;;;;;5054438;28;20212;-70
2022/05/10 01:56:06;;;;;;;9.27;8.37;;;11.70;39.10;;;;;;5054431;28;20425;-70
2022/05/10 01:58:38;;;;;;;9.33;8.43;;;11.70;38.60;;;;;;5052587;28;20416;-70
2022/05/10 02:01:10;;;;;;;11.10;10.00;;;11.80;37.80;;;;;;5053030;28;20440;-69
2022/05/10 02:03:42;;;;;;;11.43;9.67;;;11.80;37.80;;;;;;5052108;28;20992;-70
2022/05/10 02:06:20;;;;;;;10.63;9.53;;;11.80;37.80;;;;;;5052356;28;20417;-70
2022/05/10 02:09:18;;;;;;;12.80;9.67;;;11.70;37.70;;;;;;5052998;28;20469;-70
2022/05/10 02:11:58;;;;;;;11.53;10.43;;;11.70;37.70;;;;;;5055795;28;20528;-70
2022/05/10 02:14:33;;;;;;;11.63;10.27;;;11.70;37.70;;;;;;5053572;28;20504;-71
2022/05/10 02:17:34;;;;;;;11.43;10.33;;;11.80;37.40;;;;;;5056823;28;20424;-70
2022/05/10 02:20:07;;;;;;;14.73;11.20;;;11.80;37.50;;;;;;5035281;28;20425;-70
2022/05/10 02:22:46;;;;;;;10.47;8.63;;;11.70;37.70;;;;;;5048531;28;20973;-70
2022/05/10 02:25:25;;;;;;;12.10;9.70;;;11.60;37.70;;;;;;5057201;28;20457;-69
2022/05/10 02:27:59;;;;;;;10.23;9.23;;;11.50;37.60;;;;;;5056065;28;20814;-70
2022/05/10 02:30:29;;;;;;;9.57;8.30;;;11.60;38.70;;;;;;5057525;28;20405;-70
2022/05/10 02:33:08;;;;;;;9.20;8.27;;;11.50;38.30;;;;;;5056145;28;20513;-70
2022/05/10 02:35:47;;;;;;;11.03;9.27;;;11.40;38.90;;;;;;5055046;28;20459;-70
2022/05/10 02:38:17;;;;;;;9.17;8.27;;;11.30;39.00;;;;;;5057055;28;20495;-70
2022/05/10 02:40:45;;;;;;;10.20;9.20;;;11.30;39.90;;;;;;5054889;28;20535;-70
2022/05/10 02:43:18;;;;;;;13.80;10.77;;;11.20;40.50;;;;;;5055918;28;20419;-70
2022/05/10 02:45:44;;;;;;;10.10;9.20;;;11.30;40.60;;;;;;5056439;28;20415;-70
2022/05/10 02:48:17;;;;;;;13.27;11.93;;;11.20;40.60;;;;;;5055281;28;20420;-69
2022/05/10 02:50:43;;;;;;;14.13;10.77;;;11.10;40.60;;;;;;5055268;28;20205;-71
2022/05/10 02:53:08;;;;;;;15.00;12.13;;;11.20;39.80;;;;;;5056332;28;20484;-70
2022/05/10 02:56:01;;;;;;;14.87;11.90;;;11.10;41.10;;;;;;5057318;28;20668;-71
2022/05/10 02:58:33;;;;;;;10.83;9.00;;;11.00;40.80;;;;;;5056357;28;20181;-69
2022/05/10 03:01:07;;;;;;;10.47;9.40;;;11.00;40.40;;;;;;5055563;28;20473;-69
2022/05/10 03:03:34;;;;;;;10.07;8.77;;;11.00;40.90;;;;;;5056217;28;20428;-70
2022/05/10 03:05:59;;;;;;;9.63;8.67;;;10.90;40.90;;;;;;5056602;28;20764;-67
2022/05/10 03:08:27;;;;;;;11.80;10.40;;;11.00;40.80;;;;;;5057942;28;20410;-68
2022/05/10 03:10:55;;;;;;;13.13;9.20;;;11.00;40.10;;;;;;5056664;28;20485;-68
2022/05/10 03:13:21;;;;;;;13.80;11.67;;;11.10;39.80;;;;;;5055042;28;20453;-69
2022/05/10 03:15:46;;;;;;;10.83;9.73;;;11.10;40.10;;;;;;5056234;28;20423;-68
2022/05/10 03:18:12;;;;;;;14.43;9.53;;;11.10;39.50;;;;;;5057636;28;20192;-67
2022/05/10 03:20:38;;;;;;;11.87;10.67;;;11.00;39.60;;;;;;5056495;28;20197;-68
2022/05/10 03:23:08;;;;;;;14.70;11.20;;;10.90;40.20;;;;;;5057154;28;20277;-68
2022/05/10 03:25:33;;;;;;;11.30;9.63;;;11.00;40.00;;;;;;5055277;28;20181;-69
2022/05/10 03:28:00;;;;;;;9.87;8.63;;;11.00;40.60;;;;;;5053503;28;20427;-67
2022/05/10 03:30:27;;;;;;;14.60;11.40;;;11.00;40.40;;;;;;5056039;28;20172;-67
2022/05/10 03:32:53;;;;;;;11.43;10.30;;;11.00;40.60;;;;;;5055397;28;20478;-70
2022/05/10 03:35:20;;;;;;;11.93;10.73;;;11.00;40.30;;;;;;5055136;28;20446;-69
2022/05/10 03:37:46;;;;;;;12.13;10.53;;;10.90;41.20;;;;;;5056694;28;20789;-71
2022/05/10 03:40:13;;;;;;;11.83;10.33;;;11.00;41.00;;;;;;5055124;28;20419;-70
2022/05/10 03:42:46;;;;;;;11.37;8.47;;;11.00;41.10;;;;;;5052671;28;20232;-70
2022/05/10 03:45:12;;;;;;;14.30;11.20;;;10.80;40.70;;;;;;5052821;28;20487;-70
2022/05/10 03:47:38;;;;;;;12.00;10.27;;;10.80;41.70;;;;;;5052254;28;20456;-70
2022/05/10 03:50:04;;;;;;;12.30;11.10;;;10.80;41.60;;;;;;5053978;28;20495;-70
2022/05/10 03:52:30;;;;;;;11.83;10.63;;;10.80;42.00;;;;;;5052591;28;20228;-70
2022/05/10 03:54:56;;;;;;;13.57;10.60;;;10.80;42.00;;;;;;5053835;28;20464;-70
2022/05/10 03:57:21;;;;;;;14.37;11.27;;;10.80;42.00;;;;;;5053572;28;20669;-70
2022/05/10 03:59:47;;;;;;;12.70;9.83;;;10.80;42.00;;;;;;5053711;28;20582;-71
2022/05/10 04:02:13;;;;;;;10.70;9.33;;;10.80;42.00;;;;;;5053689;28;20220;-70
2022/05/10 04:04:39;;;;;;;14.20;12.07;;;10.80;42.00;;;;;;5053794;28;20673;-70
2022/05/10 04:07:06;;;;;;;11.97;10.33;;;10.80;42.00;;;;;;5053621;28;20912;-70
2022/05/10 04:09:32;;;;;;;16.37;11.07;;;10.90;42.10;;;;;;5052279;28;20815;-70
2022/05/10 04:11:58;;;;;;;10.67;9.77;;;10.90;42.10;;;;;;5053457;28;20450;-70
2022/05/10 04:14:25;;;;;;;11.53;9.77;;;11.00;42.20;;;;;;5053424;28;20462;-70
2022/05/10 04:16:50;;;;;;;10.03;9.00;;;10.80;42.00;;;;;;5052129;28;20303;-70
2022/05/10 04:19:16;;;;;;;12.13;10.23;;;10.80;43.20;;;;;;5052001;28;20439;-70
2022/05/10 04:21:41;;;;;;;16.03;10.60;;;10.90;43.10;;;;;;5053748;28;20217;-70
2022/05/10 04:24:08;;;;;;;12.17;10.97;;;10.90;42.40;;;;;;5053459;28;20185;-70
2022/05/10 04:26:33;;;;;;;13.33;11.13;;;11.00;42.20;;;;;;5053406;28;20199;-71
2022/05/10 04:28:59;;;;;;;11.30;9.03;;;11.10;42.30;;;;;;5053052;28;20418;-70
2022/05/10 04:31:24;;;;;;;10.63;8.73;;;11.10;42.30;;;;;;5053244;28;20197;-70
2022/05/10 04:33:50;;;;;;;12.80;10.53;;;11.20;42.40;;;;;;5053492;28;20213;-71
2022/05/10 04:36:16;;;;;;;12.13;10.30;;;11.30;41.80;;;;;;5053215;28;20195;-71
2022/05/10 04:38:44;;;;;;;12.27;9.67;;;11.40;40.10;;;;;;5051967;28;20190;-71
2022/05/10 04:41:24;;;;;;;11.87;10.33;;;11.50;40.00;;;;;;5052968;28;20556;-71
2022/05/10 04:43:50;;;;;;;13.47;8.80;;;11.60;39.50;;;;;;5053173;28;20420;-71
2022/05/10 04:46:16;;;;;;;11.50;10.30;;;11.70;39.50;;;;;;5053310;28;20506;-70
2022/05/10 04:48:42;;;;;;;13.10;8.90;;;11.80;39.20;;;;;;5057530;28;20957;-70
2022/05/10 04:51:07;;;;;;;10.23;9.33;;;11.90;39.20;;;;;;5053107;28;20468;-70
2022/05/10 04:53:34;;;;;;;9.87;8.97;;;12.00;38.60;;;;;;5053257;28;20698;-70
2022/05/10 04:56:00;;;;;;;9.37;8.13;;;12.00;38.60;;;;;;5052875;28;20174;-70
2022/05/10 04:58:25;;;;;;;10.50;9.50;;;12.10;38.00;;;;;;5051216;28;20417;-70
2022/05/10 05:01:04;;;;;;;9.30;8.47;;;12.10;38.00;;;;;;5009644;28;21068;-70
2022/05/10 05:03:29;;;;;;;9.93;8.80;;;12.30;38.80;;;;;;5009764;28;20407;-69
2022/05/10 05:05:55;;;;;;;11.33;10.17;;;12.40;37.50;;;;;;5009937;28;20854;-71
2022/05/10 05:08:21;;;;;;;10.77;9.67;;;12.60;37.20;;;;;;5009477;28;20235;-71
2022/05/10 05:10:46;;;;;;;10.97;9.97;;;13.00;39.60;;;;;;5009570;28;20208;-71
2022/05/10 05:13:14;;;;;;;10.23;8.80;;;14.20;39.40;;;;;;5028447;23;20250;-70
2022/05/10 05:15:40;;;;;;;10.30;9.27;;;15.70;34.50;;;;;;5009549;28;20668;-70
2022/05/10 05:18:09;;;;;;;12.50;11.43;;;17.30;29.50;;;;;;5009198;28;20411;-70
2022/05/10 05:20:35;;;;;;;11.23;10.43;;;18.80;24.40;;;;;;5009408;28;20577;-71
2022/05/10 05:23:02;;;;;;;15.37;14.27;;;20.10;22.20;;;;;;5009361;28;20426;-71
2022/05/10 05:25:28;;;;;;;14.47;13.50;;;21.20;17.40;;;;;;5009496;28;20787;-70
2022/05/10 05:27:53;;;;;;;17.47;16.53;;;22.20;17.30;;;;;;5008135;28;20418;-71
2022/05/10 05:30:19;;;;;;;17.87;16.73;;;22.90;14.10;;;;;;5009411;28;20608;-71
2022/05/10 05:32:45;;;;;;;16.63;15.73;;;23.60;14.60;;;;;;5009316;28;20768;-71
2022/05/10 05:35:13;;;;;;;24.30;17.17;;;24.20;12.80;;;;;;5009043;28;20196;-72
2022/05/10 05:37:39;;;;;;;16.93;16.13;;;24.90;12.30;;;;;;5008891;28;20191;-72
2022/05/10 05:40:11;;;;;;;19.43;18.30;;;25.50;11.30;;;;;;5009035;28;20951;-71
2022/05/10 05:42:37;;;;;;;17.40;16.60;;;25.90;9.20;;;;;;5008481;28;20525;-72
2022/05/10 05:45:05;;;;;;;18.23;17.13;;;26.50;9.50;;;;;;5009415;28;20489;-72
2022/05/10 05:47:31;;;;;;;17.33;16.53;;;27.10;8.40;;;;;;5008837;28;20212;-72
2022/05/10 05:49:57;;;;;;;19.33;18.03;;;27.80;7.60;;;;;;5009879;28;20423;-72
2022/05/10 05:52:23;;;;;;;20.10;19.00;;;28.40;7.20;;;;;;5008763;28;20180;-73
2022/05/10 05:54:53;;;;;;;18.80;17.80;;;29.00;5.40;;;;;;5007496;28;20435;-72
2022/05/10 05:57:20;;;;;;;18.90;17.90;;;29.10;3.80;;;;;;5008358;28;20857;-73
2022/05/10 05:59:46;;;;;;;19.00;17.73;;;29.20;4.80;;;;;;5008721;28;20987;-73
2022/05/10 06:02:18;;;;;;;18.50;17.40;;;29.60;4.10;;;;;;5008564;28;20422;-72
2022/05/10 06:04:44;;;;;;;19.30;18.20;;;29.20;2.10;;;;;;5008536;28;20439;-72
2022/05/10 06:07:10;;;;;;;19.93;18.73;;;26.30;6.20;;;;;;5007228;28;20932;-72
2022/05/10 06:09:37;;;;;;;19.93;18.60;;;26.20;5.50;;;;;;5008530;28;20427;-73
2022/05/10 06:12:04;;;;;;;18.17;17.17;;;26.90;6.60;;;;;;4996805;28;20502;-72
2022/05/10 06:14:30;;;;;;;20.10;18.80;;;27.80;4.70;;;;;;4995198;28;20808;-72
2022/05/10 06:16:57;;;;;;;20.97;19.73;;;28.20;4.80;;;;;;4995383;28;20514;-73
2022/05/10 06:19:23;;;;;;;19.87;18.73;;;28.50;3.50;;;;;;4995106;28;20459;-72
2022/05/10 06:21:50;;;;;;;19.70;18.60;;;28.50;4.00;;;;;;4995084;28;20555;-72
2022/05/10 06:24:16;;;;;;;18.30;17.40;;;28.30;3.40;;;;;;4995046;28;20438;-72
2022/05/10 06:26:41;;;;;;;19.53;18.30;;;28.00;4.30;;;;;;4995227;28;20419;-72
2022/05/10 06:29:07;;;;;;;19.67;18.60;;;27.70;4.40;;;;;;4994836;28;20232;-72
2022/05/10 06:31:32;;;;;;;18.50;17.50;;;27.40;5.00;;;;;;4995159;28;20204;-72
2022/05/10 06:33:58;;;;;;;19.03;17.73;;;27.10;4.70;;;;;;4995068;28;20200;-68
2022/05/10 06:36:24;;;;;;;18.50;17.60;;;26.30;5.60;;;;;;4995188;28;20189;-71
2022/05/10 06:38:50;;;;;;;18.10;17.00;;;25.70;6.80;;;;;;4994926;28;20184;-73
2022/05/10 06:41:15;;;;;;;21.33;19.93;;;25.60;6.70;;;;;;4995276;28;20173;-70
2022/05/10 06:43:41;;;;;;;18.43;17.50;;;25.40;7.40;;;;;;4994849;28;20490;-70
2022/05/10 06:46:16;;;;;;;18.10;17.03;;;24.80;7.40;;;;;;4995029;28;20819;-70
2022/05/10 06:48:45;;;;;;;19.23;18.13;;;23.30;9.80;;;;;;4994699;28;20234;-69
2022/05/10 06:51:12;;;;;;;17.17;16.23;;;22.20;10.50;;;;;;4995039;28;20404;-69
2022/05/10 06:53:38;;;;;;;17.70;16.70;;;22.40;11.90;;;;;;4994949;28;20482;-69
2022/05/10 06:56:05;;;;;;;18.53;17.47;;;22.80;11.10;;;;;;4994805;28;20404;-69
2022/05/10 06:58:30;;;;;;;18.87;17.87;;;23.80;10.10;;;;;;4994725;28;20408;-70
2022/05/10 07:00:57;;;;;;;17.37;16.37;;;24.90;9.70;;;;;;4994706;28;20971;-72
2022/05/10 07:03:31;;;;;;;19.50;18.27;;;25.90;8.30;;;;;;4994472;28;20189;-71
2022/05/10 07:05:57;;;;;;;19.30;18.10;;;26.80;6.80;;;;;;4994764;28;20463;-71
2022/05/10 07:08:23;;;;;;;18.90;17.73;;;27.40;5.70;;;;;;4994173;28;20427;-71
2022/05/10 07:10:48;;;;;;;19.20;18.00;;;28.10;5.50;;;;;;4994232;28;20416;-71
2022/05/10 07:13:21;;;;;;;17.47;16.57;;;28.90;4.10;;;;;;4994409;28;20255;-72
2022/05/10 07:15:47;;;;;;;18.03;17.07;;;29.40;4.00;;;;;;4994701;28;20193;-72
2022/05/10 07:18:14;;;;;;;18.77;17.47;;;29.90;3.00;;;;;;4994053;28;20442;-72
2022/05/10 07:20:40;;;;;;;18.03;16.93;;;30.30;2.50;;;;;;4994503;28;20804;-72
2022/05/10 07:23:06;;;;;;;18.47;17.47;;;30.40;2.00;;;;;;4993127;28;20933;-72
2022/05/10 07:25:32;;;;;;;18.20;17.20;;;30.60;2.10;;;;;;4994196;28;20790;-73
2022/05/10 07:27:58;;;;;;;20.00;19.00;;;31.10;1.30;;;;;;4993767;28;20412;-70
2022/05/10 07:30:26;;;;;;;19.87;18.87;;;29.00;2.50;;;;;;4993934;28;20588;-71
2022/05/10 07:32:51;;;;;;;18.60;17.60;;;29.50;3.50;;;;;;4993679;28;20192;-71
2022/05/10 07:36:23;;;;;;;17.20;16.20;;;30.10;2.70;;;;;;4994148;28;20420;-71
2022/05/10 07:38:05;;;;;;;18.60;17.60;;;30.40;2.20;;;;;;4992859;28;20185;-70
2022/05/10 07:40:30;;;;;;;19.57;18.50;;;30.30;1.60;;;;;;4993122;28;20506;-71
2022/05/10 07:42:56;;;;;;;18.27;17.27;;;30.30;1.70;;;;;;4994094;28;20455;-71
2022/05/10 07:45:21;;;;;;;18.27;17.23;;;30.40;2.40;;;;;;4994234;28;20591;-71
2022/05/10 07:47:47;;;;;;;18.17;17.30;;;31.00;1.80;;;;;;4993282;28;20196;-72
2022/05/10 07:50:12;;;;;;;19.93;19.03;;;31.40;1.00;;;;;;4994019;28;20570;-72
2022/05/10 07:52:41;;;;;;;19.17;18.17;;;31.50;1.00;;;;;;4993364;28;20181;-73
2022/05/10 07:55:08;;;;;;;18.37;17.27;;;31.50;1.00;;;;;;4993321;28;20201;-73
2022/05/10 07:57:33;;;;;;;19.87;18.70;;;31.80;1.00;;;;;;4992892;28;20416;-73
2022/05/10 07:59:59;;;;;;;20.57;19.50;;;32.10;1.00;;;;;;4992904;28;20466;-72
2022/05/10 08:02:24;;;;;;;19.50;18.40;;;31.70;1.00;;;;;;4993084;28;20276;-72
2022/05/10 08:04:50;;;;;;;18.93;17.93;;;31.90;1.00;;;;;;4993515;28;20666;-72
2022/05/10 08:07:16;;;;;;;18.40;17.50;;;32.10;1.00;;;;;;4992685;28;20196;-72
2022/05/10 08:09:41;;;;;;;19.63;18.53;;;32.30;1.00;;;;;;4992620;28;20200;-72
2022/05/10 08:12:07;;;;;;;20.77;19.47;;;30.50;1.00;;;;;;4992963;28;20191;-72
2022/05/10 08:14:33;;;;;;;17.60;16.80;;;30.40;1.20;;;;;;4992806;28;20223;-70
2022/05/10 08:16:58;;;;;;;18.77;17.77;;;30.30;2.20;;;;;;4991302;28;20957;-72
2022/05/10 08:19:24;;;;;;;18.43;17.43;;;30.60;1.70;;;;;;4992562;28;20207;-72
2022/05/10 08:21:49;;;;;;;19.47;18.37;;;30.70;1.50;;;;;;4988460;28;20187;-71
2022/05/10 08:24:15;;;;;;;18.50;17.50;;;30.60;1.30;;;;;;4992670;28;20682;-74
2022/05/10 08:26:41;;;;;;;18.13;17.13;;;30.70;1.00;;;;;;4991798;28;20208;-71
2022/05/10 08:29:06;;;;;;;19.43;18.43;;;30.70;1.00;;;;;;4988168;28;20184;-72
2022/05/10 08:31:32;;;;;;;19.23;18.20;;;30.30;1.00;;;;;;4992395;28;20191;-71
2022/05/10 08:33:57;;;;;;;20.37;18.70;;;30.10;1.70;;;;;;4992155;28;20208;-72
2022/05/10 08:36:23;;;;;;;18.90;17.90;;;30.10;1.60;;;;;;4991930;28;20188;-71
2022/05/10 08:38:48;;;;;;;20.57;18.80;;;30.10;1.50;;;;;;4980329;28;20200;-72
2022/05/10 08:41:43;;;;;;;18.43;17.53;;;29.80;1.80;;;;;;4977316;28;20172;-73
2022/05/10 08:44:13;;;;;;;18.47;17.63;;;29.00;2.40;;;;;;4957167;28;20205;-73
2022/05/10 08:46:43;;;;;;;17.43;16.53;;;28.80;3.10;;;;;;4977737;28;20425;-71
2022/05/10 08:49:14;;;;;;;18.30;17.40;;;28.00;3.20;;;;;;4992251;28;20503;-72
2022/05/10 08:51:39;;;;;;;18.10;17.30;;;27.70;3.80;;;;;;4992309;28;20908;-72
2022/05/10 08:54:06;;;;;;;19.27;18.30;;;27.30;4.30;;;;;;4989413;28;20440;-71
2022/05/10 08:56:40;;;;;;;17.63;16.80;;;26.60;5.30;;;;;;4992871;28;20181;-73
2022/05/10 08:59:24;;;;;;;17.50;16.70;;;26.10;6.10;;;;;;4992185;28;20468;-69
2022/05/10 09:02:03;;;;;;;18.00;17.00;;;25.90;6.20;;;;;;4991106;28;20466;-73
2022/05/10 09:04:45;;;;;;;19.30;18.20;;;25.70;6.30;;;;;;4992412;28;20432;-72
2022/05/10 09:07:42;;;;;;;17.60;16.70;;;25.60;6.30;;;;;;4992269;28;20503;-73
2022/05/10 09:10:21;;;;;;;16.70;16.00;;;25.20;7.40;;;;;;4990592;28;20430;-73
2022/05/10 09:12:58;;;;;;;18.63;17.43;;;24.50;7.60;;;;;;4992656;28;20453;-73
2022/05/10 09:15:26;;;;;;;17.47;16.53;;;24.20;8.40;;;;;;4992463;28;20423;-70
2022/05/10 09:17:51;;;;;;;16.73;15.87;;;24.30;9.00;;;;;;4992118;28;20499;-70
2022/05/10 09:20:17;;;;;;;16.60;15.83;;;24.30;8.40;;;;;;4992288;28;20463;-72
2022/05/10 09:23:13;;;;;;;18.13;17.10;;;24.30;8.50;;;;;;4992539;28;20208;-72
2022/05/10 09:25:42;;;;;;;15.67;14.90;;;24.40;8.90;;;;;;4992378;28;20173;-72
2022/05/10 09:28:36;;;;;;;15.73;14.93;;;24.50;8.10;;;;;;4991972;28;20503;-72
2022/05/10 09:34:46;;;;;;;16.23;15.43;;;24.60;7.40;;;;;;4992095;28;20438;-71
2022/05/10 09:37:31;;;;;;;16.83;16.00;;;24.60;6.80;;;;;;4991838;28;20930;-71
2022/05/10 09:39:56;;;;;;;17.23;16.43;;;24.30;6.90;;;;;;4992323;28;20472;-70
2022/05/10 09:42:29;;;;;;;16.53;15.80;;;23.90;6.90;;;;;;4992093;28;20415;-71
2022/05/10 09:45:24;;;;;;;16.10;15.20;;;24.00;7.70;;;;;;4991983;28;20201;-70
2022/05/10 09:48:10;;;;;;;17.07;16.17;;;24.30;7.80;;;;;;4994340;28;20431;-71
2022/05/10 09:50:35;;;;;;;16.77;15.97;;;24.50;7.40;;;;;;4995683;28;20454;-70
2022/05/10 09:53:25;;;;;;;16.17;15.33;;;24.70;7.30;;;;;;4995628;28;20513;-70
2022/05/10 09:55:53;;;;;;;17.10;16.20;;;24.60;6.70;;;;;;4995499;28;20169;-71
2022/05/10 09:58:29;;;;;;;16.77;15.97;;;24.70;7.00;;;;;;4995338;28;20920;-71
2022/05/10 10:00:56;;;;;;;16.13;15.43;;;24.60;7.60;;;;;;4995430;28;20455;-71
2022/05/10 10:03:26;;;;;;;16.10;15.40;;;24.70;7.60;;;;;;4995372;28;20983;-71
2022/05/10 10:05:52;;;;;;;17.37;16.47;;;24.80;7.30;;;;;;4995455;28;20562;-70
2022/05/10 10:08:17;;;;;;;17.10;15.80;;;24.90;7.40;;;;;;4994815;28;20443;-72
2022/05/10 10:10:44;;;;;;;16.23;15.53;;;25.00;6.90;;;;;;4995301;28;20885;-71
2022/05/10 10:13:32;;;;;;;15.93;15.23;;;25.10;6.80;;;;;;4995037;28;20200;-71
2022/05/10 10:16:00;;;;;;;17.17;16.30;;;25.10;6.40;;;;;;4995247;28;20788;-71
2022/05/10 10:19:21;;;;;;;16.03;15.30;;;24.90;5.80;;;;;;4994891;28;20658;-71
2022/05/10 10:22:00;;;;;;;15.70;15.00;;;24.70;6.90;;;;;;4918531;29;20968;-71
2022/05/10 10:24:37;;;;;;;16.50;15.70;;;24.80;6.30;;;;;;4994953;28;20532;-71
2022/05/10 10:27:08;;;;;;;16.30;15.50;;;24.30;5.90;;;;;;4993680;28;20847;-70
2022/05/10 10:29:43;;;;;;;16.53;15.43;;;23.90;6.70;;;;;;4994807;28;20498;-71
2022/05/10 10:32:15;;;;;;;16.77;15.87;;;23.70;7.00;;;;;;4994865;28;20825;-71
2022/05/10 10:34:56;;;;;;;16.67;15.87;;;24.00;7.20;;;;;;4995007;28;20431;-71
2022/05/10 10:37:54;;;;;;;16.03;15.20;;;24.20;6.50;;;;;;4994571;28;20511;-72
2022/05/10 10:40:51;;;;;;;15.83;15.13;;;24.30;6.30;;;;;;4994759;28;20455;-71
2022/05/10 10:43:56;;;;;;;16.80;15.67;;;24.40;5.80;;;;;;4986648;28;20540;-70
2022/05/10 10:47:04;;;;;;;15.73;14.93;;;24.60;3.90;;;;;;4964093;28;20514;-72
2022/05/10 10:49:48;;;;;;;16.17;15.47;;;24.80;3.40;;;;;;4974707;28;20416;-71
2022/05/10 10:52:14;;;;;;;16.53;15.73;;;24.90;3.60;;;;;;4994352;28;20412;-71
2022/05/10 10:54:40;;;;;;;15.60;14.93;;;24.90;4.00;;;;;;4994396;28;20432;-71
2022/05/10 10:57:16;;;;;;;16.00;15.33;;;25.00;4.30;;;;;;4994134;28;20432;-69
2022/05/10 10:59:51;;;;;;;17.03;16.13;;;25.20;3.30;;;;;;4994428;28;21001;-70
2022/05/10 11:02:38;;;;;;;16.93;16.13;;;25.30;3.30;;;;;;4994353;28;20414;-70
2022/05/10 11:05:11;;;;;;;15.27;14.67;;;25.50;2.00;;;;;;4994157;28;20428;-70
2022/05/10 11:08:01;;;;;;;15.00;14.30;;;25.70;1.00;;;;;;4992470;28;20435;-70
2022/05/10 11:10:37;;;;;;;15.43;14.77;;;25.90;1.60;;;;;;4994184;28;20442;-70
2022/05/10 11:13:20;;;;;;;16.80;16.07;;;26.10;1.60;;;;;;4994378;28;20936;-73
2022/05/10 11:15:59;;;;;;;16.40;15.60;;;26.00;1.00;;;;;;4964134;23;20576;-75
2022/05/10 11:18:56;;;;;;;15.40;14.80;;;25.70;1.00;;;;;;4936051;29;20406;-75
2022/05/10 11:21:52;;;;;;;16.53;15.73;;;25.70;1.00;;;;;;4936160;29;20516;-76
2022/05/10 11:24:44;;;;;;;15.77;15.03;;;26.10;1.00;;;;;;4936488;29;20433;-75
2022/05/10 11:27:48;;;;;;;16.43;15.73;;;26.40;1.00;;;;;;4936109;29;20407;-78
2022/05/10 11:30:46;;;;;;;15.93;15.30;;;26.30;1.00;;;;;;4936192;29;20476;-76
2022/05/10 11:33:21;;;;;;;17.20;16.40;;;26.40;1.00;;;;;;4934891;29;20436;-76
2022/05/10 11:36:17;;;;;;;16.00;15.30;;;26.10;1.00;;;;;;4936148;29;20434;-75
2022/05/10 11:39:21;;;;;;;15.23;14.63;;;26.10;1.00;;;;;;4935806;29;20411;-75
2022/05/10 11:42:25;;;;;;;17.00;16.20;;;26.10;1.00;;;;;;4931161;29;20434;-75
2022/05/10 11:45:28;;;;;;;15.40;14.70;;;25.80;1.00;;;;;;4918267;29;20474;-75
2022/05/10 11:48:12;;;;;;;15.63;15.00;;;26.00;1.00;;;;;;4915437;29;20419;-75
2022/05/10 11:53:59;;;;;;;15.07;14.40;;;26.10;1.00;;;;;;4916810;29;20433;-75
2022/05/10 11:56:32;;;;;;;16.20;15.50;;;26.30;1.00;;;;;;4917105;29;20462;-73
2022/05/10 11:59:01;;;;;;;14.50;13.90;;;26.40;1.00;;;;;;4916265;29;20423;-76
2022/05/10 12:01:45;;;;;;;15.10;14.40;;;26.50;1.00;;;;;;4916508;29;20438;-77
2022/05/10 12:04:34;;;;;;;14.40;13.80;;;26.20;1.00;;;;;;4921773;29;20500;-75
2022/05/10 12:07:28;;;;;;;15.27;14.57;;;26.10;1.00;;;;;;4935458;29;20449;-72
2022/05/10 12:09:58;;;;;;;15.13;14.43;;;26.30;1.00;;;;;;4934548;29;20441;-74
2022/05/10 12:12:33;;;;;;;15.33;14.67;;;26.40;1.00;;;;;;4934590;29;20422;-74
2022/05/10 12:21:22;;;;;;;15.40;14.70;;;25.50;1.00;;;;;;4935369;29;20464;-76
2022/05/10 12:24:05;;;;;;;15.20;14.60;;;26.00;1.00;;;;;;4935268;29;20438;-76
2022/05/10 12:26:47;;;;;;;15.40;14.80;;;26.10;1.00;;;;;;4935386;29;20901;-76
2022/05/10 12:29:35;;;;;;;16.10;15.20;;;26.30;1.00;;;;;;4933856;29;20429;-76
2022/05/10 12:32:01;;;;;;;15.20;14.60;;;26.10;1.00;;;;;;4935347;29;20417;-75
2022/05/10 12:34:54;;;;;;;15.30;14.70;;;25.60;1.00;;;;;;4933800;29;20517;-76
2022/05/10 12:37:24;;;;;;;16.03;15.30;;;25.40;1.00;;;;;;4934923;29;20481;-76
2022/05/10 12:39:56;;;;;;;15.20;14.60;;;25.60;1.00;;;;;;4933948;29;20462;-76
2022/05/10 12:42:38;;;;;;;15.10;14.50;;;25.80;1.00;;;;;;4935335;29;20419;-75
2022/05/10 12:45:32;;;;;;;15.43;14.83;;;26.00;1.00;;;;;;4934950;29;20433;-75
2022/05/10 12:48:10;;;;;;;15.80;15.00;;;26.30;1.00;;;;;;4934714;29;20924;-74
2022/05/10 12:50:47;;;;;;;14.97;14.37;;;26.70;1.00;;;;;;4933399;29;20434;-74
2022/05/10 12:53:30;;;;;;;15.60;15.00;;;27.10;1.00;;;;;;4934719;29;20485;-74
2022/05/10 12:56:05;;;;;;;15.57;14.90;;;27.30;1.00;;;;;;4933430;29;20763;-73
2022/05/10 12:58:38;;;;;;;15.20;14.50;;;27.60;1.00;;;;;;4934745;29;20422;-74
2022/05/10 13:01:06;;;;;;;16.20;15.40;;;27.90;1.00;;;;;;4935054;29;20457;-73
2022/05/10 13:03:35;;;;;;;16.13;15.43;;;28.00;1.00;;;;;;4934858;29;20423;-73
2022/05/10 13:06:39;;;;;;;16.07;15.37;;;28.20;1.00;;;;;;4934659;29;20525;-74
2022/05/10 13:09:29;;;;;;;15.93;15.23;;;28.20;1.00;;;;;;4933399;29;20414;-73
2022/05/10 13:12:26;;;;;;;15.60;15.00;;;28.10;1.00;;;;;;4934759;29;20432;-74
2022/05/10 13:14:57;;;;;;;15.93;15.20;;;28.20;1.00;;;;;;4934718;29;20446;-73
2022/05/10 13:17:32;;;;;;;15.70;15.10;;;28.30;1.00;;;;;;4934611;29;20424;-73
2022/05/10 13:19:59;;;;;;;15.43;14.83;;;28.20;1.00;;;;;;4934617;29;20445;-73